メインページ
METAR-TAF:

METAR-TAF

空港 :

キャンベルリバー, ブリティッシュコロンビア州, カナダ

緯度: 49-57N, 経度: 125-16W, 海抜: 106m

現時点の気象観測

当レポートは25分前の05:00(UTC)に作成
西の風 2kt
気温 0°C
湿度 100%
気圧 1027 hPa
視程: 24.1km
晴天
浅い霧

METAR: CYBL 170500Z 26002KT 15SM MIFG SKC 00/00 A3034 RMK LAST STFD OBS/NEXT 171400 UTC SLP278

時間: 21:25 (05:25 UTC)

予報

当レポートは3時間48分前の01:37(UTC)に作成
予報は17日の 01時(UTC)から 17日の 05時(UTC)まで有効
北西の風 5kt
視程: 9.7km
高度2000ftの雲はほとんどない
高度24000ftの千切れ雲あり
17日の 01時(UTC)から 17日の 05時(UTC)まで一時的に
視程: 1.6km

TAF: CYBL 170137Z 1701/1705 32005KT 6SM BR FEW020 BKN240 TEMPO 1701/1705 1SM BR RMK NXT FCST WILL BE ISSUED AT 171545Z

4,000以上の空港の気象観測と天気予報(METAR報とTAF報)

利用可能な観測所は地図上に黄色い丸と赤い丸で示す。

丸の上にカーソルを重ねると観測所名を参照できる。

次にクリックすると気象観測と天気予報を参照できる。

マップの切り替え:黒色「×」印の緑ボタンをクリックして拡大、「-」印の緑ボタンをクリックして縮小、緑色の三角印をクリックして隣りの地図に切り替え


METAR-TAF: